createdAt,value
2019-05-06T00:01:14.830Z,9.40
2019-05-06T00:03:43.542Z,9.40
2019-05-06T00:06:14.533Z,9.40
2019-05-06T00:08:43.938Z,9.30
2019-05-06T00:11:14.200Z,9.30
2019-05-06T00:13:44.508Z,9.30
2019-05-06T00:16:14.407Z,9.30
2019-05-06T00:18:44.841Z,9.30
2019-05-06T00:21:14.750Z,9.30
2019-05-06T00:23:45.204Z,9.30
2019-05-06T00:26:33.496Z,9.30
2019-05-06T00:29:04.479Z,9.30
2019-05-06T00:31:34.632Z,9.30
2019-05-06T00:34:04.334Z,9.30
2019-05-06T00:36:34.446Z,9.30
2019-05-06T00:39:04.958Z,9.30
2019-05-06T00:41:36.296Z,9.20
2019-05-06T00:44:05.883Z,9.20
2019-05-06T00:46:34.635Z,9.20
2019-05-06T00:49:03.873Z,9.10
2019-05-06T00:51:33.854Z,9.20
2019-05-06T00:54:05.698Z,9.10
2019-05-06T00:56:34.288Z,9.10
2019-05-06T00:59:03.663Z,9.10
2019-05-06T01:01:34.480Z,9.00
2019-05-06T01:04:04.751Z,9.00
2019-05-06T01:06:34.491Z,9.00
2019-05-06T01:09:06.857Z,8.90
2019-05-06T01:11:35.720Z,8.90
2019-05-06T01:14:05.893Z,8.90
2019-05-06T01:16:34.606Z,8.90
2019-05-06T01:19:04.742Z,8.90
2019-05-06T01:21:35.243Z,8.90
2019-05-06T01:24:04.295Z,8.90
2019-05-06T01:26:33.783Z,8.90
2019-05-06T01:29:03.908Z,8.90
2019-05-06T01:31:40.570Z,8.90
2019-05-06T01:34:04.320Z,8.90
2019-05-06T01:36:34.374Z,8.90
2019-05-06T01:39:07.417Z,8.90
2019-05-06T01:41:44.729Z,8.90
2019-05-06T01:44:13.727Z,8.90
2019-05-06T01:46:44.758Z,8.80
2019-05-06T01:49:13.875Z,8.80
2019-05-06T01:51:43.825Z,8.70
2019-05-06T01:54:14.164Z,8.70
2019-05-06T01:56:44.553Z,8.70
2019-05-06T01:59:13.942Z,8.70
2019-05-06T02:01:56.389Z,8.80
2019-05-06T02:04:14.093Z,8.70
2019-05-06T02:06:43.807Z,8.70
2019-05-06T02:09:14.895Z,8.70
2019-05-06T02:11:45.209Z,8.70
2019-05-06T02:14:14.591Z,8.60
2019-05-06T02:16:43.625Z,8.60
2019-05-06T02:19:14.668Z,8.50
2019-05-06T02:21:44.109Z,8.50
2019-05-06T02:24:30.986Z,8.40
2019-05-06T02:26:59.418Z,8.40
2019-05-06T02:29:34.158Z,8.40
2019-05-06T02:32:26.036Z,8.30
2019-05-06T02:34:54.678Z,8.30
2019-05-06T02:37:39.267Z,8.30
2019-05-06T02:40:19.463Z,8.30
2019-05-06T02:42:48.494Z,8.20
2019-05-06T02:45:17.869Z,8.20
2019-05-06T02:47:57.453Z,8.10
2019-05-06T02:50:45.774Z,8.10
2019-05-06T02:53:15.939Z,8.00
2019-05-06T02:55:44.426Z,7.90
2019-05-06T02:58:14.835Z,7.90
2019-05-06T03:00:43.860Z,7.90
2019-05-06T03:03:14.011Z,7.80
2019-05-06T03:05:43.890Z,7.80
2019-05-06T03:08:13.656Z,7.80
2019-05-06T03:10:44.124Z,7.80
2019-05-06T03:13:14.247Z,7.70
2019-05-06T03:15:43.557Z,7.70
2019-05-06T03:18:14.697Z,7.70
2019-05-06T03:20:57.815Z,7.70
2019-05-06T03:23:43.762Z,7.70
2019-05-06T03:26:13.724Z,7.70
2019-05-06T03:28:44.116Z,7.70
2019-05-06T03:31:16.433Z,7.70
2019-05-06T03:34:03.411Z,7.70
2019-05-06T03:36:22.904Z,7.70
2019-05-06T03:38:43.997Z,7.70
2019-05-06T03:41:13.954Z,7.70
2019-05-06T03:43:43.615Z,7.70
2019-05-06T03:46:14.345Z,7.70
2019-05-06T03:48:47.822Z,7.70
2019-05-06T03:51:16.578Z,7.70
2019-05-06T03:53:45.570Z,7.70
2019-05-06T03:56:19.419Z,7.70
2019-05-06T03:58:45.588Z,7.70
2019-05-06T04:01:16.718Z,7.60
2019-05-06T04:03:51.407Z,7.50
2019-05-06T04:06:15.556Z,7.40
2019-05-06T04:08:44.197Z,7.40
2019-05-06T04:11:15.555Z,7.30
2019-05-06T04:13:44.945Z,7.30
2019-05-06T04:16:15.271Z,7.20
2019-05-06T04:18:53.817Z,7.20
2019-05-06T04:21:24.194Z,7.20
2019-05-06T04:23:54.474Z,7.20
2019-05-06T04:26:27.559Z,7.20
2019-05-06T04:28:57.134Z,7.30
2019-05-06T04:31:26.293Z,7.30
2019-05-06T04:34:10.153Z,7.30
2019-05-06T04:36:26.425Z,7.30
2019-05-06T04:38:54.821Z,7.30
2019-05-06T04:41:26.559Z,7.30
2019-05-06T04:43:54.281Z,7.40
2019-05-06T04:46:23.771Z,7.40
2019-05-06T04:48:53.811Z,7.50
2019-05-06T04:51:24.718Z,7.50
2019-05-06T04:53:53.846Z,7.50
2019-05-06T04:56:23.760Z,7.50
2019-05-06T04:58:53.859Z,7.50
2019-05-06T05:01:23.332Z,7.50
2019-05-06T05:03:53.847Z,7.50
2019-05-06T05:06:23.209Z,7.60
2019-05-06T05:08:53.227Z,7.50
2019-05-06T05:11:23.910Z,7.60
2019-05-06T05:14:13.421Z,7.60
2019-05-06T05:16:43.336Z,7.60
2019-05-06T05:19:13.787Z,7.60
2019-05-06T05:21:43.010Z,7.60
2019-05-06T05:24:11.991Z,7.60
2019-05-06T05:26:46.567Z,7.60
2019-05-06T05:29:12.912Z,7.60
2019-05-06T05:31:43.577Z,7.60
2019-05-06T05:34:12.753Z,7.60
2019-05-06T05:36:42.602Z,7.60
2019-05-06T05:39:12.526Z,7.70
2019-05-06T05:41:42.880Z,7.70
2019-05-06T05:44:13.471Z,7.80
2019-05-06T05:46:43.812Z,7.80
2019-05-06T05:49:22.010Z,7.90
2019-05-06T05:51:52.090Z,7.90
2019-05-06T05:54:23.000Z,8.00
2019-05-06T05:56:52.922Z,8.00
2019-05-06T05:59:23.236Z,8.10
2019-05-06T06:01:52.911Z,8.10
2019-05-06T06:04:22.468Z,8.20
2019-05-06T06:06:51.974Z,8.30
2019-05-06T06:09:22.602Z,8.30
2019-05-06T06:11:53.940Z,8.40
2019-05-06T06:14:45.517Z,8.50
2019-05-06T06:17:23.202Z,8.50
2019-05-06T06:19:56.242Z,8.60
2019-05-06T06:22:26.644Z,8.60
2019-05-06T06:24:55.539Z,8.60
2019-05-06T06:27:24.726Z,8.70
2019-05-06T06:29:53.548Z,8.80
2019-05-06T06:32:26.977Z,8.90
2019-05-06T06:35:14.681Z,8.90
2019-05-06T06:37:54.256Z,9.00
2019-05-06T06:40:23.962Z,9.00
2019-05-06T06:42:54.270Z,9.10
2019-05-06T06:45:23.148Z,9.10
2019-05-06T06:47:52.042Z,9.20
2019-05-06T06:50:22.098Z,9.30
2019-05-06T06:52:52.526Z,9.30
2019-05-06T06:55:22.599Z,9.40
2019-05-06T06:57:58.272Z,9.50
2019-05-06T07:00:35.061Z,9.50
2019-05-06T07:03:08.826Z,9.60
2019-05-06T07:05:42.372Z,9.70
2019-05-06T07:08:12.799Z,9.70
2019-05-06T07:10:44.372Z,9.80
2019-05-06T07:13:14.519Z,9.80
2019-05-06T07:15:43.414Z,9.90
2019-05-06T07:18:13.420Z,9.90
2019-05-06T07:20:47.379Z,9.90
2019-05-06T07:23:32.501Z,10.00
2019-05-06T07:26:02.867Z,10.00
2019-05-06T07:28:32.666Z,10.10
2019-05-06T07:31:14.858Z,10.20
2019-05-06T07:33:33.477Z,10.20
2019-05-06T07:36:02.367Z,10.20
2019-05-06T07:38:32.557Z,10.20
2019-05-06T07:41:04.652Z,10.20
2019-05-06T07:43:38.332Z,10.30
2019-05-06T07:46:25.884Z,10.30
2019-05-06T07:48:54.317Z,10.30
2019-05-06T07:51:23.877Z,10.40
2019-05-06T07:53:53.397Z,10.40
2019-05-06T07:56:22.507Z,10.50
2019-05-06T07:58:53.508Z,10.40
2019-05-06T08:01:25.990Z,10.40
2019-05-06T08:03:53.272Z,10.40
2019-05-06T08:06:22.689Z,10.30
2019-05-06T08:08:53.731Z,10.30
2019-05-06T08:11:22.633Z,10.30
2019-05-06T08:13:52.746Z,10.40
2019-05-06T08:16:22.650Z,10.40
2019-05-06T08:18:52.444Z,10.40
2019-05-06T08:21:23.623Z,10.40
2019-05-06T08:23:53.229Z,10.40
2019-05-06T08:26:22.429Z,10.30
2019-05-06T08:28:52.625Z,10.30
2019-05-06T08:31:22.576Z,10.20
2019-05-06T08:33:52.500Z,10.20
2019-05-06T08:36:22.700Z,10.20
2019-05-06T08:39:04.841Z,10.20
2019-05-06T08:41:33.387Z,10.20
2019-05-06T08:44:02.595Z,10.30
2019-05-06T08:46:32.635Z,10.50
2019-05-06T08:49:03.043Z,10.70
2019-05-06T08:51:39.074Z,10.80
2019-05-06T08:54:18.181Z,11.00
2019-05-06T08:56:46.786Z,11.20
2019-05-06T08:59:15.185Z,11.30
2019-05-06T09:01:45.222Z,11.40
2019-05-06T09:04:16.330Z,11.30
2019-05-06T09:06:44.543Z,11.40
2019-05-06T09:09:13.254Z,11.40
2019-05-06T09:11:43.309Z,11.40
2019-05-06T09:14:13.721Z,11.50
2019-05-06T09:16:43.879Z,11.50
2019-05-06T09:19:14.443Z,11.50
2019-05-06T09:21:45.943Z,11.60
2019-05-06T09:24:13.312Z,11.80
2019-05-06T09:26:43.519Z,12.40
2019-05-06T09:29:32.624Z,13.10
2019-05-06T09:32:02.350Z,13.60
2019-05-06T09:34:35.145Z,13.70
2019-05-06T09:37:14.433Z,13.50
2019-05-06T09:39:44.575Z,13.30
2019-05-06T09:42:13.698Z,12.80
2019-05-06T09:44:43.377Z,12.50
2019-05-06T09:47:13.644Z,12.20
2019-05-06T09:49:43.695Z,11.90
2019-05-06T09:52:13.102Z,11.70
2019-05-06T09:54:53.573Z,11.50
2019-05-06T09:57:24.529Z,11.40
2019-05-06T09:59:53.398Z,11.40
2019-05-06T10:02:23.027Z,11.30
2019-05-06T10:04:53.340Z,11.30
2019-05-06T10:07:22.592Z,11.30
2019-05-06T10:09:52.650Z,11.30
2019-05-06T10:12:21.376Z,11.40
2019-05-06T10:14:50.009Z,11.50
2019-05-06T10:17:19.787Z,11.50
2019-05-06T10:19:48.691Z,11.50
2019-05-06T10:22:17.078Z,11.50
2019-05-06T10:24:45.547Z,11.50
2019-05-06T10:27:14.046Z,11.60
2019-05-06T10:29:44.342Z,11.70
2019-05-06T10:32:32.779Z,11.80
2019-05-06T10:35:02.816Z,11.90
2019-05-06T10:37:53.004Z,11.90
2019-05-06T10:41:00.047Z,12.00
2019-05-06T10:43:33.740Z,12.00
2019-05-06T10:46:04.075Z,12.00
2019-05-06T10:48:32.537Z,12.20
2019-05-06T10:51:03.564Z,12.30
2019-05-06T10:53:32.971Z,12.50
2019-05-06T10:56:03.101Z,12.70
2019-05-06T10:58:32.714Z,12.70
2019-05-06T11:01:03.681Z,12.80
2019-05-06T11:03:33.069Z,12.70
2019-05-06T11:06:02.654Z,12.60
2019-05-06T11:08:32.592Z,12.50
2019-05-06T11:11:14.902Z,12.50
2019-05-06T11:13:32.282Z,12.60
2019-05-06T11:16:03.183Z,12.70
2019-05-06T11:18:33.420Z,12.70
2019-05-06T11:21:03.654Z,12.70
2019-05-06T11:23:33.787Z,12.80
2019-05-06T11:26:03.125Z,12.70
2019-05-06T11:28:42.841Z,12.70
2019-05-06T11:31:14.196Z,12.70
2019-05-06T11:33:47.475Z,12.80
2019-05-06T11:36:23.914Z,12.80
2019-05-06T11:38:52.462Z,12.90
2019-05-06T11:41:23.329Z,12.80
2019-05-06T11:43:52.210Z,12.90
2019-05-06T11:46:22.801Z,13.00
2019-05-06T11:48:52.283Z,13.10
2019-05-06T11:51:23.143Z,13.30
2019-05-06T11:53:53.915Z,13.50
2019-05-06T11:56:23.087Z,13.60
2019-05-06T11:58:53.573Z,13.70
2019-05-06T12:01:40.018Z,13.70
2019-05-06T12:04:09.284Z,13.70
2019-05-06T12:06:37.685Z,13.70
2019-05-06T12:09:09.064Z,13.70
2019-05-06T12:11:37.924Z,13.70
2019-05-06T12:14:06.816Z,13.70
2019-05-06T12:16:35.294Z,13.60
2019-05-06T12:19:03.778Z,13.60
2019-05-06T12:21:33.348Z,13.70
2019-05-06T12:24:02.939Z,13.70
2019-05-06T12:26:32.263Z,13.70
2019-05-06T12:29:02.184Z,13.80
2019-05-06T12:31:32.783Z,13.80
2019-05-06T12:34:02.843Z,13.80
2019-05-06T12:36:32.559Z,13.90
2019-05-06T12:39:17.670Z,13.90
2019-05-06T12:41:49.952Z,13.90
2019-05-06T12:44:18.753Z,13.80
2019-05-06T12:47:05.520Z,13.80
2019-05-06T12:49:34.019Z,13.70
2019-05-06T12:52:02.696Z,13.70
2019-05-06T12:54:33.298Z,13.70
2019-05-06T12:57:03.368Z,13.70
2019-05-06T12:59:32.256Z,13.70
2019-05-06T13:02:02.771Z,13.70
2019-05-06T13:04:46.387Z,13.70
2019-05-06T13:07:02.957Z,13.60
2019-05-06T13:09:33.150Z,13.60
2019-05-06T13:12:03.955Z,13.60
2019-05-06T13:14:33.133Z,13.70
2019-05-06T13:17:02.608Z,13.80
2019-05-06T13:19:32.267Z,13.80
2019-05-06T13:22:03.550Z,13.90
2019-05-06T13:24:32.585Z,13.90
2019-05-06T13:27:02.527Z,14.00
2019-05-06T13:29:35.408Z,14.00
2019-05-06T13:32:03.633Z,14.00
2019-05-06T13:34:33.488Z,14.00
2019-05-06T13:37:02.087Z,14.00
2019-05-06T13:39:32.880Z,14.00
2019-05-06T13:42:00.958Z,14.00
2019-05-06T13:44:29.365Z,13.90
2019-05-06T13:46:58.043Z,13.90
2019-05-06T13:49:34.333Z,13.80
2019-05-06T13:52:04.851Z,13.80
2019-05-06T13:54:33.793Z,13.80
2019-05-06T13:57:03.050Z,13.80
2019-05-06T13:59:35.484Z,13.90
2019-05-06T14:02:08.187Z,13.90
2019-05-06T14:04:36.937Z,13.90
2019-05-06T14:07:07.502Z,13.90
2019-05-06T14:09:40.214Z,13.90
2019-05-06T14:12:06.414Z,13.90
2019-05-06T14:14:34.797Z,14.00
2019-05-06T14:17:03.503Z,14.00
2019-05-06T14:19:33.156Z,14.00
2019-05-06T14:22:02.991Z,14.00
2019-05-06T14:24:32.874Z,14.00
2019-05-06T14:27:07.048Z,13.90
2019-05-06T14:29:37.521Z,13.80
2019-05-06T14:32:05.981Z,13.70
2019-05-06T14:34:34.657Z,13.60
2019-05-06T14:37:03.080Z,13.50
2019-05-06T14:39:52.702Z,13.40
2019-05-06T14:42:13.357Z,13.40
2019-05-06T14:44:43.157Z,13.40
2019-05-06T14:47:16.735Z,13.40
2019-05-06T14:49:45.402Z,13.30
2019-05-06T14:52:13.802Z,13.40
2019-05-06T14:54:49.401Z,13.40
2019-05-06T14:57:18.736Z,13.50
2019-05-06T14:59:50.815Z,13.50
2019-05-06T15:02:18.969Z,13.50
2019-05-06T15:04:47.364Z,13.60
2019-05-06T15:07:15.770Z,13.60
2019-05-06T15:09:55.741Z,13.70
2019-05-06T15:12:14.757Z,13.70
2019-05-06T15:14:43.170Z,13.80
2019-05-06T15:17:11.604Z,13.90
2019-05-06T15:19:42.692Z,13.90
2019-05-06T15:22:12.808Z,14.00
2019-05-06T15:24:42.604Z,14.00
2019-05-06T15:27:11.990Z,14.00
2019-05-06T15:29:42.154Z,14.10
2019-05-06T15:32:18.536Z,14.20
2019-05-06T15:34:55.844Z,14.30
2019-05-06T15:37:24.547Z,14.40
2019-05-06T15:39:53.400Z,14.30
2019-05-06T15:42:22.470Z,14.30
2019-05-06T15:44:51.241Z,14.40
2019-05-06T15:47:19.654Z,14.30
2019-05-06T15:49:48.498Z,14.30
2019-05-06T15:52:17.274Z,14.20
2019-05-06T15:54:45.660Z,14.00
2019-05-06T15:57:14.356Z,14.00
2019-05-06T15:59:44.506Z,14.00
2019-05-06T16:02:13.043Z,13.80
2019-05-06T16:04:43.007Z,13.80
2019-05-06T16:07:12.780Z,13.80
2019-05-06T16:09:42.892Z,13.70
2019-05-06T16:12:12.758Z,13.70
2019-05-06T16:14:42.454Z,13.60
2019-05-06T16:17:12.307Z,13.60
2019-05-06T16:19:42.708Z,13.60
2019-05-06T16:22:11.509Z,13.60
2019-05-06T16:24:43.078Z,13.60
2019-05-06T16:27:12.480Z,13.60
2019-05-06T16:29:42.932Z,13.50
2019-05-06T16:32:12.056Z,13.50
2019-05-06T16:34:40.451Z,13.40
2019-05-06T16:37:09.158Z,13.40
2019-05-06T16:39:37.546Z,13.40
2019-05-06T16:42:06.331Z,13.40
2019-05-06T16:44:35.112Z,13.30
2019-05-06T16:47:03.707Z,13.30
2019-05-06T16:49:33.514Z,13.30
2019-05-06T16:52:02.711Z,13.40
2019-05-06T16:54:34.425Z,13.30
2019-05-06T16:57:03.879Z,13.30
2019-05-06T16:59:33.486Z,13.30
2019-05-06T17:02:03.938Z,13.20
2019-05-06T17:04:36.698Z,13.20
2019-05-06T17:07:05.177Z,13.20
2019-05-06T17:09:33.566Z,13.10
2019-05-06T17:12:02.793Z,13.10
2019-05-06T17:14:32.580Z,13.00
2019-05-06T17:17:03.172Z,13.00
2019-05-06T17:19:32.417Z,12.90
2019-05-06T17:22:03.001Z,12.90
2019-05-06T17:24:33.051Z,12.90
2019-05-06T17:27:02.711Z,12.80
2019-05-06T17:29:45.125Z,12.80
2019-05-06T17:32:15.289Z,12.70
2019-05-06T17:34:48.198Z,12.70
2019-05-06T17:37:36.954Z,12.60
2019-05-06T17:40:10.894Z,12.60
2019-05-06T17:42:37.894Z,12.50
2019-05-06T17:45:09.987Z,12.50
2019-05-06T17:47:40.026Z,12.50
2019-05-06T17:50:08.965Z,12.40
2019-05-06T17:52:37.386Z,12.40
2019-05-06T17:55:06.084Z,12.40
2019-05-06T17:57:34.514Z,12.30
2019-05-06T18:00:04.235Z,12.30
2019-05-06T18:02:33.177Z,12.30
2019-05-06T18:05:02.875Z,12.30
2019-05-06T18:07:32.658Z,12.30
2019-05-06T18:10:03.103Z,12.30
2019-05-06T18:12:32.841Z,12.30
2019-05-06T18:15:02.690Z,12.30
2019-05-06T18:17:33.126Z,12.30
2019-05-06T18:20:02.961Z,12.30
2019-05-06T18:22:32.740Z,12.30
2019-05-06T18:25:02.214Z,12.30
2019-05-06T18:27:32.554Z,12.30
2019-05-06T18:30:15.067Z,12.20
2019-05-06T18:32:32.792Z,12.20
2019-05-06T18:35:02.692Z,12.20
2019-05-06T18:37:33.164Z,12.20
2019-05-06T18:40:01.736Z,12.10
2019-05-06T18:42:30.237Z,12.10
2019-05-06T18:44:59.035Z,12.10
2019-05-06T18:47:27.451Z,12.10
2019-05-06T18:49:55.843Z,12.10
2019-05-06T18:52:24.791Z,12.00
2019-05-06T18:54:53.193Z,12.00
2019-05-06T18:57:22.619Z,12.00
2019-05-06T18:59:53.303Z,11.90
2019-05-06T19:02:22.961Z,11.90
2019-05-06T19:04:53.459Z,11.90
2019-05-06T19:07:22.186Z,11.80
2019-05-06T19:09:55.764Z,11.80
2019-05-06T19:12:31.937Z,11.80
2019-05-06T19:14:54.951Z,11.70
2019-05-06T19:17:23.360Z,11.70
2019-05-06T19:19:52.137Z,11.70
2019-05-06T19:22:22.698Z,11.70
2019-05-06T19:24:52.095Z,11.70
2019-05-06T19:27:24.705Z,11.60
2019-05-06T19:29:54.346Z,11.60
2019-05-06T19:32:22.614Z,11.60
2019-05-06T19:34:53.025Z,11.50
2019-05-06T19:37:23.297Z,11.50
2019-05-06T19:39:52.614Z,11.40
2019-05-06T19:42:22.446Z,11.40
2019-05-06T19:44:52.817Z,11.40
2019-05-06T19:47:21.577Z,11.30
2019-05-06T19:49:49.990Z,11.30
2019-05-06T19:52:18.431Z,11.30
2019-05-06T19:54:46.873Z,11.30
2019-05-06T19:57:16.078Z,11.30
2019-05-06T19:59:44.675Z,11.20
2019-05-06T20:02:13.309Z,11.20
2019-05-06T20:04:44.424Z,11.20
2019-05-06T20:07:17.800Z,11.20
2019-05-06T20:10:03.301Z,11.20
2019-05-06T20:12:33.937Z,11.10
2019-05-06T20:15:20.512Z,11.10
2019-05-06T20:17:48.976Z,11.10
2019-05-06T20:20:17.400Z,11.10
2019-05-06T20:22:46.295Z,11.10
2019-05-06T20:25:14.821Z,11.10
2019-05-06T20:27:43.564Z,11.00
2019-05-06T20:30:13.124Z,11.00
2019-05-06T20:32:42.514Z,11.00
2019-05-06T20:35:13.044Z,11.00
2019-05-06T20:37:42.602Z,10.90
2019-05-06T20:40:14.490Z,10.90
2019-05-06T20:42:43.410Z,10.90
2019-05-06T20:45:13.747Z,10.90
2019-05-06T20:47:42.899Z,10.90
2019-05-06T20:50:13.294Z,10.90
2019-05-06T20:52:42.435Z,10.90
2019-05-06T20:55:12.964Z,10.90
2019-05-06T20:57:42.146Z,10.90
2019-05-06T21:00:12.895Z,10.90
2019-05-06T21:02:42.505Z,10.90
2019-05-06T21:05:13.900Z,10.90
2019-05-06T21:07:43.284Z,10.80
2019-05-06T21:10:12.702Z,10.80
2019-05-06T21:12:42.223Z,10.80
2019-05-06T21:15:13.391Z,10.80
2019-05-06T21:17:42.045Z,10.80
2019-05-06T21:20:11.151Z,10.80
2019-05-06T21:22:39.538Z,10.80
2019-05-06T21:25:08.781Z,10.80
2019-05-06T21:27:37.623Z,10.80
2019-05-06T21:30:09.494Z,10.80
2019-05-06T21:32:38.269Z,10.80
2019-05-06T21:35:07.374Z,10.80
2019-05-06T21:37:35.861Z,10.90
2019-05-06T21:40:05.783Z,10.90
2019-05-06T21:42:34.177Z,10.90
2019-05-06T21:45:03.337Z,10.90
2019-05-06T21:47:32.606Z,10.90
2019-05-06T21:50:01.349Z,10.90
2019-05-06T21:52:37.146Z,10.90
2019-05-06T21:55:02.416Z,11.00
2019-05-06T21:57:31.366Z,11.00
2019-05-06T22:00:02.494Z,11.00
2019-05-06T22:02:32.603Z,11.00
2019-05-06T22:05:02.646Z,11.00
2019-05-06T22:07:33.201Z,11.00
2019-05-06T22:10:02.157Z,11.00
2019-05-06T22:12:32.211Z,10.90
2019-05-06T22:15:04.825Z,10.90
2019-05-06T22:17:33.694Z,10.90
2019-05-06T22:20:03.259Z,10.80
2019-05-06T22:22:39.602Z,10.80
2019-05-06T22:25:08.356Z,10.80
2019-05-06T22:27:37.369Z,10.80
2019-05-06T22:30:07.515Z,10.80
2019-05-06T22:32:45.483Z,10.80
2019-05-06T22:35:16.023Z,10.80
2019-05-06T22:37:45.026Z,10.70
2019-05-06T22:40:14.632Z,10.70
2019-05-06T22:42:43.252Z,10.70
2019-05-06T22:45:12.602Z,10.70
2019-05-06T22:47:42.098Z,10.70
2019-05-06T22:50:13.165Z,10.70
2019-05-06T22:52:42.108Z,10.70
2019-05-06T22:55:12.957Z,10.70
2019-05-06T22:57:42.219Z,10.70
2019-05-06T23:00:15.158Z,10.70
2019-05-06T23:02:52.825Z,10.70
2019-05-06T23:05:23.080Z,10.70
2019-05-06T23:07:53.269Z,10.70
2019-05-06T23:10:24.538Z,10.70
2019-05-06T23:12:52.481Z,10.70
2019-05-06T23:15:20.996Z,10.70
2019-05-06T23:17:49.425Z,10.70
2019-05-06T23:20:18.644Z,10.60
2019-05-06T23:22:47.077Z,10.60
2019-05-06T23:25:15.475Z,10.60
2019-05-06T23:27:44.307Z,10.60
2019-05-06T23:30:13.534Z,10.60
2019-05-06T23:32:42.459Z,10.60
2019-05-06T23:35:12.859Z,10.50
2019-05-06T23:38:17.749Z,10.50
2019-05-06T23:41:23.489Z,10.50
2019-05-06T23:44:35.879Z,10.50
2019-05-06T23:47:34.989Z,10.50
2019-05-06T23:50:42.695Z,10.50
2019-05-06T23:53:47.265Z,10.40
2019-05-06T23:56:43.333Z,10.30
2019-05-06T23:59:17.315Z,10.40
